Time;durP1;ratioP1;P1;durP2;ratioP2;P2;SDS_P1;SDS_P2;PMS_P1;PMS_P2;Temp;Humidity;BMP_temperature;BMP_pressure;BME280_temperature;BME280_humidity;BME280_pressure;Samples;Min_cycle;Max_cycle;Signal;HPM_P1;HPM_P2
2022/05/22 00:00:25;;;;;;;7.05;4.10;;;15.00;89.00;;;;;;5246884;28;20048;-73
2022/05/22 00:02:58;;;;;;;6.13;4.15;;;14.90;90.60;;;;;;5233563;28;20043;-72
2022/05/22 00:05:31;;;;;;;10.23;4.10;;;14.80;90.70;;;;;;5227917;28;20575;-72
2022/05/22 00:08:06;;;;;;;5.15;4.07;;;14.80;91.20;;;;;;5217172;28;20048;-74
2022/05/22 00:10:39;;;;;;;9.52;4.38;;;14.80;91.50;;;;;;5245716;28;20173;-73
2022/05/22 00:13:11;;;;;;;5.50;3.95;;;14.80;91.80;;;;;;5236179;28;20073;-73
2022/05/22 00:18:35;;;;;;;5.63;3.75;;;14.70;93.10;;;;;;5250611;28;20052;-73
2022/05/22 00:21:08;;;;;;;5.78;4.18;;;14.70;93.90;;;;;;5251024;28;20036;-72
2022/05/22 00:23:43;;;;;;;5.60;3.75;;;14.60;94.80;;;;;;5238808;28;20049;-72
2022/05/22 00:26:16;;;;;;;8.95;4.05;;;14.60;95.70;;;;;;5228533;28;20051;-73
2022/05/22 00:28:50;;;;;;;6.20;4.35;;;14.60;95.70;;;;;;5238679;28;20040;-73
2022/05/22 00:31:22;;;;;;;7.72;4.35;;;14.50;96.20;;;;;;5248626;28;20094;-72
2022/05/22 00:33:55;;;;;;;6.18;4.13;;;14.50;97.30;;;;;;5238835;28;20059;-72
2022/05/22 00:36:28;;;;;;;8.55;4.50;;;14.40;97.50;;;;;;5248593;28;20551;-73
2022/05/22 00:39:01;;;;;;;6.03;3.88;;;14.40;97.70;;;;;;5249215;28;20048;-73
2022/05/22 00:41:34;;;;;;;6.95;4.30;;;14.40;98.50;;;;;;5246905;28;20044;-73
2022/05/22 00:44:07;;;;;;;5.57;4.10;;;14.30;99.20;;;;;;5251706;28;20096;-73
2022/05/22 00:46:40;;;;;;;7.35;4.35;;;14.20;99.60;;;;;;5248319;28;20036;-73
2022/05/22 00:49:29;;;;;;;10.20;4.05;;;14.10;99.90;;;;;;5221636;28;20032;-73
2022/05/22 00:52:09;;;;;;;6.03;3.88;;;14.10;99.90;;;;;;5225184;28;20052;-73
2022/05/22 00:54:52;;;;;;;10.75;5.20;;;14.10;99.90;;;;;;5244333;28;20512;-74
2022/05/22 00:57:32;;;;;;;6.55;4.60;;;14.10;99.90;;;;;;5229147;28;20048;-72
2022/05/22 01:00:13;;;;;;;11.25;4.50;;;14.00;99.90;;;;;;5236294;28;20041;-72
2022/05/22 01:05:41;;;;;;;7.93;4.10;;;13.80;99.90;;;;;;5245838;28;20115;-72
2022/05/22 01:08:14;;;;;;;7.30;4.47;;;13.80;99.90;;;;;;5247489;28;20040;-71
2022/05/22 01:11:02;;;;;;;6.13;4.15;;;13.80;99.90;;;;;;5228925;28;20312;-73
2022/05/22 01:13:44;;;;;;;4.78;4.30;;;13.80;99.90;;;;;;5220220;28;20052;-72
2022/05/22 01:16:16;;;;;;;8.13;4.20;;;13.70;99.90;;;;;;5226686;28;20055;-73
2022/05/22 01:18:52;;;;;;;8.10;4.22;;;13.70;99.90;;;;;;5228703;28;20052;-72
2022/05/22 01:21:29;;;;;;;6.45;4.40;;;13.70;99.90;;;;;;5255270;28;20583;-73
2022/05/22 01:24:02;;;;;;;9.35;4.70;;;13.60;99.90;;;;;;5231922;28;20045;-72
2022/05/22 01:26:38;;;;;;;9.00;4.72;;;13.60;99.90;;;;;;5228307;28;20051;-73
2022/05/22 01:29:25;;;;;;;8.55;4.32;;;13.50;99.90;;;;;;5236813;28;20048;-72
2022/05/22 01:31:58;;;;;;;6.30;4.88;;;13.50;99.90;;;;;;5248131;28;20049;-73
2022/05/22 01:34:30;;;;;;;12.45;5.35;;;13.40;99.90;;;;;;5221178;28;20047;-73
2022/05/22 01:37:04;;;;;;;8.25;4.55;;;13.30;99.90;;;;;;5233202;28;20049;-72
2022/05/22 01:39:37;;;;;;;9.02;4.30;;;13.30;99.90;;;;;;5230279;28;20040;-73
2022/05/22 01:42:10;;;;;;;6.90;4.63;;;13.40;99.90;;;;;;5239293;28;20500;-73
2022/05/22 01:44:43;;;;;;;5.10;4.57;;;13.30;99.90;;;;;;5230658;28;20519;-72
2022/05/22 01:47:16;;;;;;;7.28;4.57;;;13.30;99.90;;;;;;5235625;28;20041;-73
2022/05/22 01:49:49;;;;;;;7.53;4.80;;;13.20;99.90;;;;;;5211792;28;20052;-73
2022/05/22 01:52:22;;;;;;;13.07;4.50;;;13.20;99.90;;;;;;5252016;28;20058;-72
2022/05/22 01:54:55;;;;;;;7.25;4.70;;;13.20;99.90;;;;;;5232637;28;20925;-73
2022/05/22 01:57:29;;;;;;;8.07;5.38;;;13.00;99.90;;;;;;5245234;28;20048;-72
2022/05/22 02:00:04;;;;;;;5.90;4.35;;;13.00;99.90;;;;;;5229094;28;20048;-73
2022/05/22 02:02:47;;;;;;;6.27;4.53;;;13.00;99.90;;;;;;5244832;28;20047;-73
2022/05/22 02:05:28;;;;;;;6.63;5.28;;;13.00;99.90;;;;;;5233212;28;20552;-72
2022/05/22 02:08:21;;;;;;;6.45;4.80;;;12.90;99.90;;;;;;5213934;28;20056;-73
2022/05/22 02:11:00;;;;;;;7.88;4.80;;;12.80;99.90;;;;;;5214638;28;20507;-73
2022/05/22 02:13:40;;;;;;;6.38;4.45;;;12.90;99.90;;;;;;5235354;28;20051;-72
2022/05/22 02:16:14;;;;;;;7.00;4.15;;;12.80;99.90;;;;;;5234530;28;20048;-73
2022/05/22 02:18:47;;;;;;;;;;;12.80;99.90;;;;;;5251211;28;20628;-72
2022/05/22 02:21:20;;;;;;;6.00;4.90;;;12.60;99.90;;;;;;5240813;28;20406;-72
2022/05/22 02:23:52;;;;;;;5.13;4.13;;;12.50;99.90;;;;;;5249289;28;20086;-73
2022/05/22 02:26:25;;;;;;;12.73;4.85;;;12.60;99.90;;;;;;5249624;28;20048;-73
2022/05/22 02:28:58;;;;;;;4.93;4.43;;;12.60;99.90;;;;;;5227689;28;20144;-73
2022/05/22 02:31:30;;;;;;;5.30;4.15;;;12.60;99.90;;;;;;5235123;28;20309;-73
2022/05/22 02:34:03;;;;;;;7.40;4.57;;;12.50;99.90;;;;;;5223581;28;20130;-73
2022/05/22 02:36:36;;;;;;;6.70;5.18;;;12.50;99.90;;;;;;5238084;28;20053;-72
2022/05/22 02:39:09;;;;;;;8.83;4.80;;;12.40;99.90;;;;;;5249565;28;20048;-73
2022/05/22 02:41:41;;;;;;;5.82;4.35;;;12.40;99.90;;;;;;5230742;28;20068;-73
2022/05/22 02:44:14;;;;;;;4.93;4.32;;;12.40;99.90;;;;;;5225692;28;20052;-73
2022/05/22 02:46:48;;;;;;;7.57;4.35;;;12.40;99.90;;;;;;5242040;28;20041;-72
2022/05/22 02:49:21;;;;;;;4.85;4.38;;;12.40;99.90;;;;;;5248992;28;20208;-72
2022/05/22 02:51:54;;;;;;;5.88;4.30;;;12.40;99.90;;;;;;5252039;28;20051;-72
2022/05/22 02:54:27;;;;;;;4.95;4.40;;;12.40;99.90;;;;;;5220501;28;20036;-72
2022/05/22 02:57:03;;;;;;;5.85;4.43;;;12.40;99.90;;;;;;5251028;28;20059;-72
2022/05/22 02:59:42;;;;;;;8.77;4.28;;;12.40;99.90;;;;;;5225679;28;20045;-73
2022/05/22 03:02:16;;;;;;;5.57;4.20;;;12.30;99.90;;;;;;5229829;28;20052;-72
2022/05/22 03:04:50;;;;;;;7.88;4.20;;;12.30;99.90;;;;;;5230101;28;20076;-73
2022/05/22 03:07:24;;;;;;;7.18;4.70;;;12.30;99.90;;;;;;5230969;28;20071;-72
2022/05/22 03:09:58;;;;;;;;;;;12.30;99.90;;;;;;5227070;28;20044;-72
2022/05/22 03:12:38;;;;;;;5.80;4.38;;;12.10;99.90;;;;;;5239903;28;19924;-72
2022/05/22 03:15:14;;;;;;;10.80;4.47;;;12.20;99.90;;;;;;5236132;28;20099;-72
2022/05/22 03:17:47;;;;;;;10.63;4.90;;;12.20;99.90;;;;;;5249238;28;20074;-72
2022/05/22 03:20:21;;;;;;;5.80;4.32;;;12.20;99.90;;;;;;5230448;28;20045;-72
2022/05/22 03:22:54;;;;;;;7.20;4.72;;;12.20;99.90;;;;;;5227865;28;20081;-73
2022/05/22 03:25:26;;;;;;;8.52;4.80;;;12.20;99.90;;;;;;5250072;28;20487;-72
2022/05/22 03:27:59;;;;;;;5.43;4.87;;;12.10;99.90;;;;;;5231553;28;20044;-74
2022/05/22 03:30:39;;;;;;;9.32;4.57;;;12.00;99.90;;;;;;5231932;28;20318;-73
2022/05/22 03:33:17;;;;;;;10.38;5.32;;;12.00;99.90;;;;;;5227413;28;21224;-75
2022/05/22 03:35:56;;;;;;;6.38;4.88;;;12.00;99.90;;;;;;5209911;28;20051;-72
2022/05/22 03:38:29;;;;;;;6.95;4.60;;;11.90;99.90;;;;;;5250062;28;20925;-73
2022/05/22 03:41:08;;;;;;;7.05;5.22;;;11.90;99.90;;;;;;5234607;28;20040;-73
2022/05/22 03:43:43;;;;;;;8.85;4.93;;;11.80;99.90;;;;;;5251021;28;20051;-73
2022/05/22 03:46:36;;;;;;;5.07;4.25;;;11.90;99.90;;;;;;5248310;28;20056;-73
2022/05/22 03:49:11;;;;;;;6.07;4.90;;;11.80;99.90;;;;;;5248454;28;20044;-73
2022/05/22 03:51:45;;;;;;;8.38;4.82;;;11.80;99.90;;;;;;5253064;28;20060;-72
2022/05/22 03:54:21;;;;;;;6.13;4.30;;;11.90;99.90;;;;;;5231527;28;20036;-73
2022/05/22 03:56:58;;;;;;;7.55;5.18;;;11.90;99.90;;;;;;5229259;28;20055;-73
2022/05/22 03:59:38;;;;;;;7.95;4.90;;;11.80;99.90;;;;;;5236760;28;20091;-73
2022/05/22 04:02:13;;;;;;;6.38;4.65;;;11.90;99.90;;;;;;5230192;28;20036;-74
2022/05/22 04:04:48;;;;;;;8.27;5.55;;;11.90;99.90;;;;;;5250307;28;20040;-74
2022/05/22 04:07:28;;;;;;;6.90;5.22;;;12.00;99.90;;;;;;5253547;28;20056;-74
2022/05/22 04:10:07;;;;;;;8.60;5.60;;;12.00;99.90;;;;;;5250072;28;20059;-74
2022/05/22 04:12:44;;;;;;;8.35;5.13;;;12.10;99.90;;;;;;5249663;28;20902;-74
2022/05/22 04:15:21;;;;;;;7.75;5.40;;;12.10;99.90;;;;;;5232125;28;20416;-74
2022/05/22 04:17:56;;;;;;;9.10;5.32;;;12.20;99.90;;;;;;5231414;28;20040;-72
2022/05/22 04:20:33;;;;;;;8.13;5.88;;;12.20;99.90;;;;;;5248499;28;20048;-72
2022/05/22 04:26:30;;;;;;;10.77;5.40;;;12.50;99.90;;;;;;5242726;28;20075;-74
2022/05/22 04:29:05;;;;;;;10.38;5.65;;;12.60;99.90;;;;;;5227370;28;20047;-72
2022/05/22 04:31:38;;;;;;;8.32;6.10;;;12.70;99.90;;;;;;5237916;28;20041;-72
2022/05/22 04:34:25;;;;;;;9.77;5.95;;;12.70;99.90;;;;;;5209313;28;20538;-72
2022/05/22 04:37:10;;;;;;;10.02;6.38;;;12.80;99.90;;;;;;5250619;28;20055;-73
2022/05/22 04:39:51;;;;;;;7.68;5.80;;;12.90;99.90;;;;;;5251407;28;20036;-73
2022/05/22 04:42:24;;;;;;;6.65;5.38;;;12.90;99.90;;;;;;5231453;28;20063;-74
2022/05/22 04:44:56;;;;;;;8.32;5.32;;;13.00;99.90;;;;;;5245294;28;20514;-73
2022/05/22 04:47:48;;;;;;;8.23;5.43;;;13.00;99.90;;;;;;5227021;28;20048;-73
2022/05/22 04:50:27;;;;;;;8.38;5.65;;;13.10;99.90;;;;;;5248058;28;20645;-73
2022/05/22 04:53:21;;;;;;;8.90;5.68;;;13.10;99.90;;;;;;5251225;28;20082;-73
2022/05/22 04:56:14;;;;;;;7.95;5.22;;;13.20;99.90;;;;;;5251210;28;20044;-73
2022/05/22 04:59:25;;;;;;;14.38;5.20;;;13.30;99.90;;;;;;5242099;28;20048;-73
2022/05/22 05:01:58;;;;;;;5.95;5.35;;;13.40;99.90;;;;;;5247728;28;20047;-72
2022/05/22 05:04:58;;;;;;;6.65;5.50;;;13.60;99.90;;;;;;5241049;28;20044;-73
2022/05/22 05:07:40;;;;;;;9.45;4.88;;;13.70;99.90;;;;;;5214079;28;20071;-74
2022/05/22 05:10:33;;;;;;;8.65;4.57;;;13.90;99.90;;;;;;5243793;28;20059;-73
2022/05/22 05:13:26;;;;;;;10.98;5.38;;;13.90;99.90;;;;;;5248316;28;20059;-73
2022/05/22 05:16:10;;;;;;;7.88;4.68;;;14.00;99.90;;;;;;5229878;28;20047;-73
2022/05/22 05:18:51;;;;;;;8.27;5.00;;;14.00;99.90;;;;;;5227611;28;20044;-74
2022/05/22 05:21:24;;;;;;;8.93;5.70;;;14.00;99.90;;;;;;5249974;28;20476;-73
2022/05/22 05:24:01;;;;;;;8.43;4.47;;;14.10;99.90;;;;;;5231096;28;20044;-73
2022/05/22 05:26:36;;;;;;;7.85;4.40;;;14.20;99.80;;;;;;5229266;28;20058;-73
2022/05/22 05:29:12;;;;;;;9.38;4.97;;;14.30;98.40;;;;;;5247335;28;20381;-73
2022/05/22 05:31:46;;;;;;;9.25;5.10;;;14.40;98.80;;;;;;5230317;28;20048;-73
2022/05/22 05:34:21;;;;;;;8.50;4.88;;;14.40;98.30;;;;;;5231041;28;20503;-74
2022/05/22 05:37:04;;;;;;;6.57;4.45;;;14.50;98.40;;;;;;5248871;28;20173;-73
2022/05/22 05:39:59;;;;;;;6.63;3.90;;;14.60;96.90;;;;;;5228702;28;20071;-72
2022/05/22 05:42:42;;;;;;;7.65;4.40;;;14.70;97.80;;;;;;5248699;28;20044;-72
2022/05/22 05:45:17;;;;;;;9.65;4.55;;;14.80;97.20;;;;;;5251226;28;20051;-72
2022/05/22 05:47:57;;;;;;;9.55;4.50;;;15.00;96.10;;;;;;5250006;28;20533;-71
2022/05/22 05:50:41;;;;;;;7.80;4.47;;;15.10;94.90;;;;;;5218872;28;20052;-71
2022/05/22 05:53:37;;;;;;;4.95;4.32;;;15.20;94.00;;;;;;5239891;28;20059;-72
2022/05/22 05:56:22;;;;;;;10.50;3.95;;;15.30;92.30;;;;;;5250056;28;20501;-72
2022/05/22 05:58:57;;;;;;;6.70;3.42;;;15.40;91.60;;;;;;5247783;28;20054;-71
2022/05/22 06:01:35;;;;;;;9.55;3.55;;;15.50;91.80;;;;;;5246153;28;20051;-72
2022/05/22 06:04:10;;;;;;;6.07;3.45;;;15.60;90.60;;;;;;5213322;28;20047;-72
2022/05/22 06:06:43;;;;;;;4.65;3.60;;;15.70;88.30;;;;;;5232682;28;20115;-72
2022/05/22 06:09:16;;;;;;;6.15;3.10;;;15.70;87.10;;;;;;5248788;28;20080;-72
2022/05/22 06:12:12;;;;;;;4.75;3.10;;;15.80;86.40;;;;;;5218307;28;20546;-72
2022/05/22 06:14:56;;;;;;;;;;;16.00;86.20;;;;;;5207383;28;20063;-73
2022/05/22 06:17:39;;;;;;;5.38;2.97;;;16.00;83.50;;;;;;5252499;28;21639;-73
2022/05/22 06:20:17;;;;;;;3.13;2.70;;;16.10;83.50;;;;;;5251086;28;20669;-72
2022/05/22 06:22:51;;;;;;;5.50;3.28;;;16.30;84.10;;;;;;5232904;28;20059;-72
2022/05/22 06:25:44;;;;;;;5.32;2.88;;;16.50;83.20;;;;;;5246471;28;20051;-71
2022/05/22 06:28:50;;;;;;;4.40;2.60;;;16.60;82.20;;;;;;5218612;28;20154;-73
2022/05/22 06:31:58;;;;;;;4.55;2.72;;;16.70;80.60;;;;;;5222654;28;20064;-73
2022/05/22 06:34:42;;;;;;;6.60;2.65;;;16.90;80.40;;;;;;5206160;28;20544;-73
2022/05/22 06:37:36;;;;;;;3.50;2.70;;;17.00;77.70;;;;;;5230669;28;20059;-73
2022/05/22 06:40:37;;;;;;;9.60;2.78;;;17.10;76.80;;;;;;5219903;28;20068;-73
2022/05/22 06:43:39;;;;;;;10.82;3.28;;;17.20;75.30;;;;;;5228936;28;20048;-74
2022/05/22 06:46:31;;;;;;;4.75;2.17;;;17.30;76.20;;;;;;5235556;28;20047;-73
2022/05/22 06:49:31;;;;;;;8.65;2.63;;;17.50;75.20;;;;;;5223576;28;20519;-73
2022/05/22 06:52:45;;;;;;;6.32;2.90;;;17.60;74.60;;;;;;5244363;22;20057;-69
2022/05/22 06:55:32;;;;;;;12.55;2.50;;;17.70;73.80;;;;;;5232145;28;20036;-68
2022/05/22 06:58:30;;;;;;;6.45;2.38;;;17.80;74.90;;;;;;5226460;28;20044;-71
2022/05/22 07:01:17;;;;;;;5.38;2.70;;;18.00;73.10;;;;;;5231781;28;20055;-70
2022/05/22 07:04:09;;;;;;;5.47;2.28;;;18.10;73.30;;;;;;5231560;28;20047;-70
2022/05/22 07:07:11;;;;;;;4.13;2.25;;;18.20;71.90;;;;;;5182159;28;20060;-70
2022/05/22 07:09:51;;;;;;;5.07;2.50;;;18.20;71.30;;;;;;5216914;28;20511;-70
2022/05/22 07:12:52;;;;;;;5.85;2.42;;;18.30;71.50;;;;;;5233635;28;20866;-70
2022/05/22 07:15:43;;;;;;;6.43;2.30;;;18.50;71.00;;;;;;5232368;28;20411;-69
2022/05/22 07:18:33;;;;;;;3.90;2.22;;;18.70;70.60;;;;;;5232653;28;20047;-71
2022/05/22 07:21:33;;;;;;;3.72;2.05;;;18.80;69.70;;;;;;5234379;28;20520;-70
2022/05/22 07:24:31;;;;;;;5.68;2.00;;;18.80;67.60;;;;;;5213675;28;20625;-70
2022/05/22 07:27:19;;;;;;;8.13;2.05;;;18.80;68.50;;;;;;5230410;28;20053;-70
2022/05/22 07:30:02;;;;;;;5.10;2.00;;;19.10;69.10;;;;;;5227241;28;20045;-71
2022/05/22 07:32:55;;;;;;;4.40;2.63;;;19.20;66.80;;;;;;5231751;28;20484;-70
2022/05/22 07:36:03;;;;;;;6.78;2.40;;;19.20;68.10;;;;;;5232149;28;20051;-71
2022/05/22 07:38:58;;;;;;;5.25;2.42;;;19.40;67.50;;;;;;5226856;28;20064;-70
2022/05/22 07:41:50;;;;;;;2.80;1.95;;;19.60;68.20;;;;;;5226829;28;20041;-70
2022/05/22 07:44:46;;;;;;;3.67;2.35;;;19.70;66.80;;;;;;5226969;28;20057;-70
2022/05/22 07:47:39;;;;;;;5.90;2.13;;;20.00;66.00;;;;;;5227895;28;20059;-70
2022/05/22 07:50:21;;;;;;;3.67;2.33;;;20.10;65.80;;;;;;5229963;28;20645;-70
2022/05/22 07:52:56;;;;;;;3.22;1.98;;;20.20;64.40;;;;;;5234059;28;20048;-71
2022/05/22 07:55:47;;;;;;;6.85;1.85;;;20.20;63.60;;;;;;5232902;28;20130;-70
2022/05/22 07:58:54;;;;;;;7.70;2.10;;;20.20;63.30;;;;;;5215588;28;20063;-71
2022/05/22 08:01:41;;;;;;;3.05;1.80;;;20.30;63.50;;;;;;5232322;28;20036;-71
2022/05/22 08:04:42;;;;;;;5.80;2.00;;;20.40;62.90;;;;;;5234580;28;20056;-70
2022/05/22 08:07:33;;;;;;;4.50;2.03;;;20.60;62.00;;;;;;5232248;28;20056;-71
2022/05/22 08:10:15;;;;;;;5.18;1.85;;;20.70;63.40;;;;;;5227384;28;20052;-71
2022/05/22 08:12:50;;;;;;;7.25;2.45;;;20.80;61.90;;;;;;5245543;28;20036;-70
2022/05/22 08:15:31;;;;;;;3.78;1.70;;;20.90;62.20;;;;;;5234045;28;20040;-71
2022/05/22 08:18:15;;;;;;;6.18;1.83;;;20.90;61.00;;;;;;5229780;28;20041;-71
2022/05/22 08:20:49;;;;;;;8.30;1.92;;;20.90;60.60;;;;;;5231612;28;20056;-71
2022/05/22 08:23:23;;;;;;;6.65;2.30;;;20.80;62.40;;;;;;5231434;28;20048;-70
2022/05/22 08:25:56;;;;;;;4.57;1.92;;;20.90;61.70;;;;;;5232089;28;20044;-71
2022/05/22 08:28:31;;;;;;;4.32;2.10;;;21.00;60.30;;;;;;5233053;28;20055;-70
2022/05/22 08:31:04;;;;;;;3.53;1.70;;;21.00;60.80;;;;;;5231067;28;20036;-71
2022/05/22 08:33:37;;;;;;;4.68;2.70;;;20.90;60.40;;;;;;5213122;28;20070;-71
2022/05/22 08:36:14;;;;;;;4.53;1.50;;;21.00;61.50;;;;;;5232556;28;20567;-71
2022/05/22 08:38:46;;;;;;;2.37;1.50;;;21.10;60.40;;;;;;5227938;28;20044;-71
2022/05/22 08:41:22;;;;;;;6.77;2.90;;;21.20;61.30;;;;;;5233220;28;20492;-71
2022/05/22 08:44:14;;;;;;;9.57;5.93;;;21.40;60.80;;;;;;5228977;28;20321;-71
2022/05/22 08:47:10;;;;;;;8.35;4.72;;;21.50;59.20;;;;;;5233231;28;20044;-71
2022/05/22 08:49:54;;;;;;;9.60;5.63;;;21.40;59.10;;;;;;5231973;28;20037;-71
2022/05/22 08:52:34;;;;;;;9.63;4.18;;;21.30;58.30;;;;;;5233473;28;20048;-69
2022/05/22 08:55:12;;;;;;;7.80;3.67;;;21.20;57.80;;;;;;5230749;28;20059;-70
2022/05/22 09:01:03;;;;;;;5.22;2.80;;;21.30;61.00;;;;;;5231423;28;20051;-70
2022/05/22 09:03:44;;;;;;;5.65;2.70;;;21.40;57.60;;;;;;5233758;28;20052;-70
2022/05/22 09:06:26;;;;;;;17.80;3.25;;;21.40;57.10;;;;;;5231075;28;20420;-71
2022/05/22 09:08:58;;;;;;;5.07;2.88;;;21.40;57.40;;;;;;5228877;28;20085;-71
2022/05/22 09:12:13;;;;;;;5.43;2.67;;;21.30;57.50;;;;;;5231752;28;20044;-70
2022/05/22 09:19:04;;;;;;;4.70;3.00;;;21.00;57.70;;;;;;5226175;28;20044;-71
2022/05/22 09:21:56;;;;;;;7.00;2.92;;;21.20;58.80;;;;;;5231418;28;20052;-71
2022/05/22 09:25:13;;;;;;;5.50;2.60;;;21.30;58.50;;;;;;5227451;28;20048;-70
2022/05/22 09:28:19;;;;;;;6.72;2.58;;;21.30;57.20;;;;;;5229521;28;20447;-70
2022/05/22 09:31:04;;;;;;;5.32;2.38;;;21.30;56.50;;;;;;5231283;28;20049;-70
2022/05/22 09:33:36;;;;;;;4.55;2.25;;;21.30;57.60;;;;;;5233722;28;20063;-70
2022/05/22 09:36:11;;;;;;;5.75;2.40;;;21.30;57.70;;;;;;5232416;28;20044;-70
2022/05/22 09:38:44;;;;;;;5.72;2.80;;;21.40;58.80;;;;;;5230289;28;20047;-70
2022/05/22 09:41:31;;;;;;;6.30;2.40;;;21.50;58.10;;;;;;5231525;28;20059;-71
2022/05/22 09:44:21;;;;;;;3.58;1.80;;;21.60;58.00;;;;;;5232978;28;20044;-71
2022/05/22 09:47:28;;;;;;;5.68;2.20;;;21.70;57.60;;;;;;5231436;28;20323;-70
2022/05/22 09:50:13;;;;;;;5.07;2.42;;;21.80;57.40;;;;;;5236386;28;20047;-69
2022/05/22 09:52:50;;;;;;;3.75;2.10;;;21.90;56.40;;;;;;5233187;28;20045;-70
2022/05/22 09:55:45;;;;;;;2.20;1.50;;;21.90;55.20;;;;;;5234498;28;20492;-71
2022/05/22 09:58:49;;;;;;;3.35;1.60;;;21.80;53.80;;;;;;5233774;28;20045;-70
2022/05/22 10:01:33;;;;;;;4.85;2.10;;;21.90;54.90;;;;;;5236031;28;20513;-70
2022/05/22 10:04:14;;;;;;;2.28;1.60;;;21.90;55.10;;;;;;5235594;28;20132;-70
2022/05/22 10:07:01;;;;;;;3.92;1.80;;;22.00;55.00;;;;;;5234033;28;20591;-70
2022/05/22 10:10:04;;;;;;;5.30;1.80;;;22.30;56.40;;;;;;5234731;28;20048;-71
2022/05/22 10:12:57;;;;;;;3.40;1.80;;;22.50;54.70;;;;;;5236459;28;20052;-70
2022/05/22 10:16:01;;;;;;;1.73;1.25;;;22.60;54.10;;;;;;5236771;28;20041;-71
2022/05/22 10:18:50;;;;;;;2.03;1.33;;;22.80;54.10;;;;;;5233493;28;20060;-70
2022/05/22 10:21:29;;;;;;;3.08;1.55;;;23.10;51.90;;;;;;5236397;28;20496;-70
2022/05/22 10:24:39;;;;;;;3.83;1.60;;;23.40;51.30;;;;;;5232751;28;20056;-70
2022/05/22 10:27:26;;;;;;;6.00;1.30;;;23.60;51.00;;;;;;5233628;28;20037;-70
2022/05/22 10:30:08;;;;;;;2.67;1.60;;;23.90;50.60;;;;;;5234022;28;20040;-71
2022/05/22 10:32:53;;;;;;;5.10;1.67;;;24.20;51.60;;;;;;5235835;28;20053;-71
2022/05/22 10:35:38;;;;;;;3.38;1.38;;;24.50;48.40;;;;;;5233744;28;20455;-72
2022/05/22 10:38:28;;;;;;;6.72;2.03;;;24.70;48.30;;;;;;5229996;28;20048;-71
2022/05/22 10:44:13;;;;;;;3.53;2.58;;;25.20;49.10;;;;;;5233605;28;20048;-69
2022/05/22 10:46:51;;;;;;;4.35;1.77;;;25.40;48.10;;;;;;5235115;28;20048;-70
2022/05/22 10:49:34;;;;;;;5.07;1.67;;;25.40;47.10;;;;;;5234403;28;20529;-69
2022/05/22 10:52:09;;;;;;;4.05;2.63;;;25.60;47.20;;;;;;5231028;28;20056;-68
2022/05/22 10:54:54;;;;;;;3.47;2.20;;;25.70;46.50;;;;;;5236377;28;20048;-69
2022/05/22 10:57:31;;;;;;;2.88;1.90;;;25.70;47.60;;;;;;5263441;22;20048;-76
2022/05/22 11:00:15;;;;;;;3.58;1.60;;;26.00;46.20;;;;;;5269506;27;20055;-76
2022/05/22 11:02:47;;;;;;;4.65;2.08;;;26.30;46.40;;;;;;5274647;28;20502;-76
2022/05/22 11:05:25;;;;;;;2.33;1.75;;;26.60;47.50;;;;;;5277978;27;20040;-76
2022/05/22 11:07:58;;;;;;;4.53;1.80;;;26.60;45.70;;;;;;5269251;28;20067;-76
2022/05/22 11:10:37;;;;;;;1.65;1.40;;;26.90;44.90;;;;;;5268356;28;20097;-77
2022/05/22 11:13:19;;;;;;;2.45;1.60;;;27.00;43.60;;;;;;5283928;27;20040;-76
2022/05/22 11:15:52;;;;;;;2.28;1.50;;;27.00;42.80;;;;;;5266688;28;20043;-76
2022/05/22 11:18:27;;;;;;;3.72;1.70;;;27.30;45.80;;;;;;5271363;27;20066;-76
2022/05/22 11:21:03;;;;;;;;;;;27.60;46.80;;;;;;5277529;28;21037;-76
2022/05/22 11:24:03;;;;;;;4.80;1.52;;;27.60;43.30;;;;;;5272564;27;19924;-76
2022/05/22 11:26:42;;;;;;;5.55;1.60;;;27.90;45.90;;;;;;5272285;28;20048;-76
2022/05/22 11:29:24;;;;;;;5.07;2.17;;;28.00;45.90;;;;;;5275933;28;20039;-76
2022/05/22 11:32:19;;;;;;;3.35;1.85;;;28.10;45.60;;;;;;5261266;28;20050;-76
2022/05/22 11:35:17;;;;;;;7.72;1.55;;;28.20;44.90;;;;;;5261090;28;20067;-76
2022/05/22 11:38:09;;;;;;;2.50;1.48;;;28.30;41.20;;;;;;5273801;27;20071;-76
2022/05/22 11:41:20;;;;;;;3.03;1.60;;;28.20;41.50;;;;;;5273037;28;20059;-76
2022/05/22 11:44:12;;;;;;;4.68;1.70;;;27.80;40.40;;;;;;5266679;28;20636;-75
2022/05/22 11:47:20;;;;;;;5.27;1.93;;;27.70;42.40;;;;;;5271299;27;20055;-76
2022/05/22 11:50:11;;;;;;;2.70;1.77;;;27.90;42.00;;;;;;5230774;28;20052;-76
2022/05/22 11:53:10;;;;;;;3.92;2.35;;;28.20;42.80;;;;;;5275277;27;20070;-76
2022/05/22 11:56:03;;;;;;;4.05;1.90;;;27.90;41.30;;;;;;5271071;27;20053;-76
2022/05/22 11:59:09;;;;;;;2.67;1.95;;;28.00;44.50;;;;;;5268961;28;20458;-76
2022/05/22 12:01:50;;;;;;;4.50;1.80;;;27.90;46.00;;;;;;5263056;27;20052;-77
2022/05/22 12:04:41;;;;;;;1.88;1.60;;;28.40;43.60;;;;;;5265056;28;20047;-77
2022/05/22 12:07:34;;;;;;;3.75;1.63;;;28.70;43.40;;;;;;5272438;27;20066;-76
2022/05/22 12:10:35;;;;;;;2.58;1.63;;;28.80;43.60;;;;;;5252033;28;20063;-77
2022/05/22 12:13:22;;;;;;;2.78;1.83;;;29.10;44.30;;;;;;5269238;27;20052;-77
2022/05/22 12:16:05;;;;;;;4.18;1.73;;;29.40;41.90;;;;;;5265056;27;20074;-77
2022/05/22 12:19:02;;;;;;;2.92;1.70;;;29.20;42.20;;;;;;5266299;28;20050;-77
2022/05/22 12:21:59;;;;;;;6.75;2.08;;;29.40;42.40;;;;;;5264539;27;20052;-77
2022/05/22 12:24:50;;;;;;;3.15;2.08;;;29.30;41.90;;;;;;5268272;27;20040;-77
2022/05/22 12:27:28;;;;;;;5.47;1.88;;;29.30;43.70;;;;;;5263134;27;20055;-76
2022/05/22 12:30:06;;;;;;;5.53;2.25;;;29.60;43.40;;;;;;5267687;27;20043;-76
2022/05/22 12:32:50;;;;;;;6.75;2.22;;;29.80;43.30;;;;;;5264770;27;20063;-77
2022/05/22 12:35:24;;;;;;;5.10;2.20;;;29.70;42.50;;;;;;5262762;27;20035;-77
2022/05/22 12:38:02;;;;;;;4.20;1.63;;;29.50;42.30;;;;;;5266764;28;20059;-77
2022/05/22 12:40:48;;;;;;;4.78;2.10;;;29.70;44.10;;;;;;5269161;28;20064;-76
2022/05/22 12:43:23;;;;;;;2.90;2.10;;;29.80;43.20;;;;;;5270340;27;20109;-76
2022/05/22 12:46:01;;;;;;;4.03;1.80;;;29.70;43.30;;;;;;5261336;27;20040;-75
2022/05/22 12:48:33;;;;;;;4.60;1.88;;;29.80;42.10;;;;;;5264812;28;20059;-77
2022/05/22 12:51:17;;;;;;;4.20;1.67;;;29.70;42.40;;;;;;5268122;28;20058;-77
2022/05/22 12:53:51;;;;;;;3.90;1.80;;;29.70;42.10;;;;;;5266472;28;20824;-77
2022/05/22 12:56:38;;;;;;;3.00;1.60;;;29.80;43.20;;;;;;5261587;27;20052;-76
2022/05/22 12:59:27;;;;;;;4.68;1.83;;;30.00;41.60;;;;;;5268330;28;20086;-76
2022/05/22 13:02:01;;;;;;;2.72;1.70;;;30.00;41.60;;;;;;5252344;28;20067;-76
2022/05/22 13:04:50;;;;;;;1.60;1.33;;;29.50;40.60;;;;;;5264939;27;20058;-77
2022/05/22 13:07:31;;;;;;;4.30;1.73;;;29.80;42.10;;;;;;5265069;28;20058;-76
2022/05/22 13:10:31;;;;;;;3.95;1.67;;;30.00;41.30;;;;;;5264872;28;20048;-77
2022/05/22 13:13:08;;;;;;;3.97;1.83;;;30.40;40.40;;;;;;5262343;28;20522;-74
2022/05/22 13:15:56;;;;;;;2.15;1.60;;;30.40;40.10;;;;;;5267014;28;20400;-76
2022/05/22 13:18:29;;;;;;;3.72;1.73;;;30.20;40.00;;;;;;5258457;28;20048;-76
2022/05/22 13:21:02;;;;;;;4.45;1.50;;;30.00;40.40;;;;;;5261150;28;20048;-77
2022/05/22 13:23:39;;;;;;;2.60;1.40;;;30.20;41.00;;;;;;5257897;28;20538;-76
2022/05/22 13:26:14;;;;;;;2.83;1.48;;;30.30;40.80;;;;;;5249784;28;20047;-76
2022/05/22 13:28:57;;;;;;;5.05;1.63;;;30.00;41.10;;;;;;5257167;28;20052;-75
2022/05/22 13:31:49;;;;;;;2.92;1.45;;;30.10;41.30;;;;;;5260626;28;20063;-75
2022/05/22 13:34:28;;;;;;;2.03;1.33;;;30.00;41.00;;;;;;5260025;28;20052;-76
2022/05/22 13:37:07;;;;;;;2.28;1.60;;;30.10;41.90;;;;;;5263731;28;20066;-76
2022/05/22 13:40:01;;;;;;;1.83;1.48;;;30.20;40.90;;;;;;5265417;28;20048;-75
2022/05/22 13:43:22;;;;;;;5.72;1.65;;;30.00;40.40;;;;;;5278541;27;20052;-76
2022/05/22 13:46:15;;;;;;;2.67;1.60;;;30.10;39.60;;;;;;5261913;28;20047;-75
2022/05/22 13:48:51;;;;;;;4.57;1.75;;;29.70;40.70;;;;;;5260600;28;20043;-75
2022/05/22 13:54:55;;;;;;;2.75;1.52;;;29.30;40.50;;;;;;5256673;28;20052;-76
2022/05/22 13:57:33;;;;;;;3.90;1.60;;;29.00;41.50;;;;;;5260077;28;20458;-75
2022/05/22 14:00:15;;;;;;;6.00;1.42;;;28.90;41.90;;;;;;5258753;28;20052;-76
2022/05/22 14:02:52;;;;;;;3.33;1.50;;;29.20;42.00;;;;;;5258554;28;20051;-75
2022/05/22 14:05:36;;;;;;;4.82;1.70;;;29.40;42.00;;;;;;5259425;28;20064;-75
2022/05/22 14:08:18;;;;;;;3.47;1.63;;;29.50;41.50;;;;;;5259860;28;20032;-76
2022/05/22 14:11:06;;;;;;;3.22;1.48;;;29.10;40.20;;;;;;5259345;28;20036;-76
2022/05/22 14:13:57;;;;;;;3.10;1.60;;;29.10;43.00;;;;;;5259959;28;20047;-75
2022/05/22 14:16:35;;;;;;;5.20;1.58;;;29.40;42.30;;;;;;5260497;28;20052;-75
2022/05/22 14:19:11;;;;;;;5.72;1.80;;;29.60;41.80;;;;;;5264850;28;20051;-75
2022/05/22 14:21:45;;;;;;;2.78;1.50;;;29.40;40.60;;;;;;5260650;28;20059;-76
2022/05/22 14:27:26;;;;;;;5.78;1.48;;;29.30;41.30;;;;;;5257928;28;21050;-76
2022/05/22 14:30:07;;;;;;;5.32;1.70;;;29.30;40.40;;;;;;5258120;28;20043;-76
2022/05/22 14:33:08;;;;;;;2.20;1.70;;;29.60;40.70;;;;;;5275415;27;20487;-76